If you wish to contribute or participate in the discussions about articles you are invited to join SKYbrary as a registered user

 Actions

Rota Naval Station Airport

From SKYbrary Wiki

LERT /
Revision as of 12:45, 24 February 2015 by Timo.Kouwenhoven (talk | contribs) (LE CSV import)
(diff) ← Older revision | Latest revision (diff) | Newer revision → (diff)
Airport
ICAO: LERT
Summary
Name Rota Naval Station Airport
Region Europe
Territory Spain ES.gif
Location , Andalucia
Serving Rota
Elevation 26.213 m
86 ft
86 ft26.213 m
Type medium airport
Coordinates 36° 38' 42.76" N, 6° 20' 58.05" W
Runways
Designator Length Width Surface ROPS
10/28 3689 m12,103.018 ft
61 m200.131 ft
ASP yes/yes


METAR
Observation LERT 200100Z 09005KT CAVOK 07/06 Q1015 NOSIG
Station Rota
Date/Time 20 November 2019 01:00:00
Wind direction 90°
Wind speed 05 kts
Lowest cloud amount clouds and visibility OK
Temperature 7°C
Dew point 6°C
Humidity 93%
QNH 1015 hPa
Weather condition n/a